sensor_id;sensor_type;location;lat;lon;timestamp;pressure;altitude;pressure_sealevel;temperature;humidity
38616;BME280;24370;51.986;4.666;2023-04-20T00:01:32;102488.94;;;14.20;27.98
38616;BME280;24370;51.986;4.666;2023-04-20T00:03:57;102483.72;;;14.72;27.76
38616;BME280;24370;51.986;4.666;2023-04-20T00:06:25;102487.25;;;14.73;27.51
38616;BME280;24370;51.986;4.666;2023-04-20T00:08:53;102481.94;;;14.40;27.73
38616;BME280;24370;51.986;4.666;2023-04-20T00:11:19;102479.31;;;14.48;27.52
38616;BME280;24370;51.986;4.666;2023-04-20T00:13:44;102480.22;;;14.64;27.70
38616;BME280;24370;51.986;4.666;2023-04-20T00:16:10;102477.47;;;13.76;28.08
38616;BME280;24370;51.986;4.666;2023-04-20T00:18:35;102476.59;;;13.82;28.31
38616;BME280;24370;51.986;4.666;2023-04-20T00:21:01;102477.53;;;13.95;28.09
38616;BME280;24370;51.986;4.666;2023-04-20T00:23:26;102467.91;;;14.32;27.77
38616;BME280;24370;51.986;4.666;2023-04-20T00:25:51;102470.50;;;14.97;27.31
38616;BME280;24370;51.986;4.666;2023-04-20T00:28:17;102473.13;;;13.92;28.23
38616;BME280;24370;51.986;4.666;2023-04-20T00:30:42;102476.69;;;14.68;27.66
38616;BME280;24370;51.986;4.666;2023-04-20T00:33:07;102474.88;;;13.84;29.12
38616;BME280;24370;51.986;4.666;2023-04-20T00:35:33;102462.56;;;15.09;27.76
38616;BME280;24370;51.986;4.666;2023-04-20T00:37:58;102457.31;;;15.16;27.45
38616;BME280;24370;51.986;4.666;2023-04-20T00:40:24;102452.94;;;15.02;27.81
38616;BME280;24370;51.986;4.666;2023-04-20T00:42:49;102455.53;;;15.18;28.30
38616;BME280;24370;51.986;4.666;2023-04-20T00:45:14;102455.63;;;14.78;28.15
38616;BME280;24370;51.986;4.666;2023-04-20T00:47:40;102460.00;;;14.49;28.64
38616;BME280;24370;51.986;4.666;2023-04-20T00:50:06;102449.44;;;14.97;27.84
38616;BME280;24370;51.986;4.666;2023-04-20T00:52:31;102446.56;;;15.59;27.50
38616;BME280;24370;51.986;4.666;2023-04-20T00:54:57;102452.16;;;14.66;29.44
38616;BME280;24370;51.986;4.666;2023-04-20T00:57:24;102442.50;;;14.37;28.84
38616;BME280;24370;51.986;4.666;2023-04-20T00:59:50;102441.56;;;14.91;28.98
38616;BME280;24370;51.986;4.666;2023-04-20T01:02:16;102439.84;;;14.43;29.65
38616;BME280;24370;51.986;4.666;2023-04-20T01:04:43;102434.56;;;14.56;29.65
38616;BME280;24370;51.986;4.666;2023-04-20T01:07:09;102428.44;;;14.09;30.68
38616;BME280;24370;51.986;4.666;2023-04-20T01:09:36;102427.56;;;14.83;29.90
38616;BME280;24370;51.986;4.666;2023-04-20T01:12:05;102423.22;;;14.17;30.86
38616;BME280;24370;51.986;4.666;2023-04-20T01:14:30;102418.81;;;14.25;30.85
38616;BME280;24370;51.986;4.666;2023-04-20T01:16:56;102416.19;;;14.50;29.40
38616;BME280;24370;51.986;4.666;2023-04-20T01:19:21;102411.81;;;13.93;30.07
38616;BME280;24370;51.986;4.666;2023-04-20T01:21:47;102407.31;;;13.43;31.60
38616;BME280;24370;51.986;4.666;2023-04-20T01:24:12;102404.81;;;14.26;30.44
38616;BME280;24370;51.986;4.666;2023-04-20T01:26:38;102397.78;;;14.19;29.81
38616;BME280;24370;51.986;4.666;2023-04-20T01:29:03;102389.88;;;14.33;29.45
38616;BME280;24370;51.986;4.666;2023-04-20T01:31:29;102385.47;;;14.58;29.66
38616;BME280;24370;51.986;4.666;2023-04-20T01:33:55;102383.72;;;14.45;29.73
38616;BME280;24370;51.986;4.666;2023-04-20T01:36:20;102386.38;;;14.20;30.35
38616;BME280;24370;51.986;4.666;2023-04-20T01:38:46;102371.44;;;14.74;29.15
38616;BME280;24370;51.986;4.666;2023-04-20T01:41:12;102366.09;;;14.90;29.42
38616;BME280;24370;51.986;4.666;2023-04-20T01:43:38;102369.66;;;14.73;29.50
38616;BME280;24370;51.986;4.666;2023-04-20T01:46:04;102362.72;;;14.26;29.88
38616;BME280;24370;51.986;4.666;2023-04-20T01:48:30;102353.88;;;14.73;30.51
38616;BME280;24370;51.986;4.666;2023-04-20T01:50:56;102360.97;;;14.17;31.53
38616;BME280;24370;51.986;4.666;2023-04-20T01:53:22;102351.28;;;14.29;30.98
38616;BME280;24370;51.986;4.666;2023-04-20T01:55:48;102357.44;;;13.52;31.15
38616;BME280;24370;51.986;4.666;2023-04-20T01:58:14;102353.03;;;14.43;30.23
38616;BME280;24370;51.986;4.666;2023-04-20T02:00:40;102352.16;;;14.48;30.90
38616;BME280;24370;51.986;4.666;2023-04-20T02:03:05;102346.88;;;14.75;30.79
38616;BME280;24370;51.986;4.666;2023-04-20T02:05:31;102350.41;;;14.39;31.54
38616;BME280;24370;51.986;4.666;2023-04-20T02:07:56;102346.94;;;14.23;31.87
38616;BME280;24370;51.986;4.666;2023-04-20T02:10:22;102345.19;;;13.94;32.72
38616;BME280;24370;51.986;4.666;2023-04-20T02:12:48;102346.94;;;13.81;33.04
38616;BME280;24370;51.986;4.666;2023-04-20T02:15:14;102343.28;;;13.10;34.46
38616;BME280;24370;51.986;4.666;2023-04-20T02:17:39;102342.56;;;13.79;33.93
38616;BME280;24370;51.986;4.666;2023-04-20T02:20:06;102337.28;;;13.71;33.80
38616;BME280;24370;51.986;4.666;2023-04-20T02:22:35;102332.88;;;13.40;34.31
38616;BME280;24370;51.986;4.666;2023-04-20T02:25:02;102330.09;;;13.05;35.30
38616;BME280;24370;51.986;4.666;2023-04-20T02:27:29;102336.44;;;13.70;34.68
38616;BME280;24370;51.986;4.666;2023-04-20T02:29:55;102328.53;;;13.69;35.26
38616;BME280;24370;51.986;4.666;2023-04-20T02:32:20;102322.31;;;13.28;36.08
38616;BME280;24370;51.986;4.666;2023-04-20T02:34:46;102312.75;;;14.09;35.19
38616;BME280;24370;51.986;4.666;2023-04-20T02:37:11;102316.16;;;13.12;37.25
38616;BME280;24370;51.986;4.666;2023-04-20T02:39:37;102310.09;;;14.31;35.95
38616;BME280;24370;51.986;4.666;2023-04-20T02:42:04;102313.66;;;13.51;37.42
38616;BME280;24370;51.986;4.666;2023-04-20T02:44:29;102306.66;;;14.05;36.48
38616;BME280;24370;51.986;4.666;2023-04-20T02:46:55;102298.78;;;13.82;37.29
38616;BME280;24370;51.986;4.666;2023-04-20T02:49:20;102303.97;;;13.40;38.49
38616;BME280;24370;51.986;4.666;2023-04-20T02:51:45;102310.16;;;13.52;38.43
38616;BME280;24370;51.986;4.666;2023-04-20T02:54:11;102296.94;;;14.41;37.30
38616;BME280;24370;51.986;4.666;2023-04-20T02:56:36;102299.66;;;13.64;38.80
38616;BME280;24370;51.986;4.666;2023-04-20T02:59:02;102299.66;;;13.77;39.04
38616;BME280;24370;51.986;4.666;2023-04-20T03:01:28;102302.09;;;13.01;41.34
38616;BME280;24370;51.986;4.666;2023-04-20T03:03:53;102297.88;;;13.51;40.31
38616;BME280;24370;51.986;4.666;2023-04-20T03:06:19;102296.13;;;13.50;40.28
38616;BME280;24370;51.986;4.666;2023-04-20T03:08:44;102280.31;;;14.30;38.99
38616;BME280;24370;51.986;4.666;2023-04-20T03:11:10;102268.03;;;14.20;39.50
38616;BME280;24370;51.986;4.666;2023-04-20T03:13:35;102273.38;;;13.64;41.08
38616;BME280;24370;51.986;4.666;2023-04-20T03:16:00;102286.47;;;13.49;41.45
38616;BME280;24370;51.986;4.666;2023-04-20T03:18:26;102273.38;;;13.53;42.23
38616;BME280;24370;51.986;4.666;2023-04-20T03:20:52;102268.97;;;13.82;41.32
38616;BME280;24370;51.986;4.666;2023-04-20T03:23:18;102261.94;;;14.10;41.11
38616;BME280;24370;51.986;4.666;2023-04-20T03:25:43;102262.78;;;14.20;40.96
38616;BME280;24370;51.986;4.666;2023-04-20T03:28:10;102267.22;;;13.37;42.28
38616;BME280;24370;51.986;4.666;2023-04-20T03:30:35;102262.78;;;13.15;43.78
38616;BME280;24370;51.986;4.666;2023-04-20T03:33:01;102263.72;;;13.46;43.07
38616;BME280;24370;51.986;4.666;2023-04-20T03:35:26;102248.84;;;13.93;41.92
38616;BME280;24370;51.986;4.666;2023-04-20T03:37:51;102256.66;;;13.27;43.87
38616;BME280;24370;51.986;4.666;2023-04-20T03:40:17;102243.47;;;14.33;41.96
38616;BME280;24370;51.986;4.666;2023-04-20T03:42:42;102235.66;;;14.05;41.95
38616;BME280;24370;51.986;4.666;2023-04-20T03:45:08;102236.03;;;15.19;39.79
38616;BME280;24370;51.986;4.666;2023-04-20T03:47:34;102242.69;;;13.45;43.36
38616;BME280;24370;51.986;4.666;2023-04-20T03:49:59;102233.03;;;14.02;42.45
38616;BME280;24370;51.986;4.666;2023-04-20T03:52:25;102224.31;;;13.63;42.95
38616;BME280;24370;51.986;4.666;2023-04-20T03:54:50;102229.34;;;14.54;41.11
38616;BME280;24370;51.986;4.666;2023-04-20T03:57:16;102218.81;;;14.56;40.73
38616;BME280;24370;51.986;4.666;2023-04-20T03:59:41;102221.41;;;14.74;40.72
38616;BME280;24370;51.986;4.666;2023-04-20T04:02:06;102218.47;;;15.18;39.47
38616;BME280;24370;51.986;4.666;2023-04-20T04:04:32;102222.16;;;14.95;40.31
38616;BME280;24370;51.986;4.666;2023-04-20T04:06:57;102222.91;;;15.16;40.34
38616;BME280;24370;51.986;4.666;2023-04-20T04:09:23;102221.38;;;15.94;38.28
38616;BME280;24370;51.986;4.666;2023-04-20T04:11:50;102232.66;;;15.04;40.14
38616;BME280;24370;51.986;4.666;2023-04-20T04:14:16;102225.75;;;14.82;40.34
38616;BME280;24370;51.986;4.666;2023-04-20T04:16:41;102221.66;;;15.60;38.86
38616;BME280;24370;51.986;4.666;2023-04-20T04:19:07;102221.97;;;15.23;40.03
38616;BME280;24370;51.986;4.666;2023-04-20T04:21:33;102220.63;;;14.51;41.84
38616;BME280;24370;51.986;4.666;2023-04-20T04:23:58;102204.41;;;15.22;40.31
38616;BME280;24370;51.986;4.666;2023-04-20T04:26:23;102207.13;;;15.13;40.23
38616;BME280;24370;51.986;4.666;2023-04-20T04:28:50;102204.03;;;14.33;42.04
38616;BME280;24370;51.986;4.666;2023-04-20T04:31:16;102187.09;;;15.94;38.74
38616;BME280;24370;51.986;4.666;2023-04-20T04:33:43;102184.38;;;16.00;39.13
38616;BME280;24370;51.986;4.666;2023-04-20T04:36:10;102190.09;;;15.57;39.84
38616;BME280;24370;51.986;4.666;2023-04-20T04:38:36;102172.84;;;15.19;40.52
38616;BME280;24370;51.986;4.666;2023-04-20T04:41:02;102176.31;;;15.24;40.83
38616;BME280;24370;51.986;4.666;2023-04-20T04:43:28;102167.44;;;15.34;40.82
38616;BME280;24370;51.986;4.666;2023-04-20T04:45:53;102169.31;;;15.20;40.80
38616;BME280;24370;51.986;4.666;2023-04-20T04:48:19;102167.97;;;14.63;41.82
38616;BME280;24370;51.986;4.666;2023-04-20T04:50:45;102163.84;;;15.44;40.50
38616;BME280;24370;51.986;4.666;2023-04-20T04:53:10;102161.81;;;14.58;42.43
38616;BME280;24370;51.986;4.666;2023-04-20T04:55:36;102158.91;;;15.04;41.15
38616;BME280;24370;51.986;4.666;2023-04-20T04:58:01;102154.47;;;15.13;41.43
38616;BME280;24370;51.986;4.666;2023-04-20T05:00:28;102168.81;;;14.65;42.14
38616;BME280;24370;51.986;4.666;2023-04-20T05:02:53;102164.38;;;14.73;42.28
38616;BME280;24370;51.986;4.666;2023-04-20T05:05:19;102154.66;;;14.85;41.70
38616;BME280;24370;51.986;4.666;2023-04-20T05:07:45;102148.25;;;15.20;40.84
38616;BME280;24370;51.986;4.666;2023-04-20T05:10:10;102144.34;;;14.45;42.66
38616;BME280;24370;51.986;4.666;2023-04-20T05:12:36;102146.00;;;14.61;42.97
38616;BME280;24370;51.986;4.666;2023-04-20T05:15:01;102136.34;;;14.60;42.58
38616;BME280;24370;51.986;4.666;2023-04-20T05:17:27;102132.75;;;14.83;42.25
38616;BME280;24370;51.986;4.666;2023-04-20T05:19:52;102129.56;;;14.19;43.53
38616;BME280;24370;51.986;4.666;2023-04-20T05:22:18;102114.84;;;15.22;42.34
38616;BME280;24370;51.986;4.666;2023-04-20T05:24:43;102124.16;;;14.43;43.44
38616;BME280;24370;51.986;4.666;2023-04-20T05:27:09;102124.16;;;14.50;43.67
38616;BME280;24370;51.986;4.666;2023-04-20T05:29:36;102122.28;;;14.73;43.12
38616;BME280;24370;51.986;4.666;2023-04-20T05:32:02;102108.16;;;14.81;43.34
38616;BME280;24370;51.986;4.666;2023-04-20T05:34:27;102107.84;;;13.67;45.68
38616;BME280;24370;51.986;4.666;2023-04-20T05:36:53;102110.19;;;14.35;44.42
38616;BME280;24370;51.986;4.666;2023-04-20T05:39:19;102111.63;;;14.89;43.63
38616;BME280;24370;51.986;4.666;2023-04-20T05:41:46;102111.63;;;14.92;43.45
38616;BME280;24370;51.986;4.666;2023-04-20T05:44:11;102112.88;;;14.26;44.66
38616;BME280;24370;51.986;4.666;2023-04-20T05:46:37;102111.91;;;14.39;44.23
38616;BME280;24370;51.986;4.666;2023-04-20T05:49:02;102116.34;;;14.36;44.21
38616;BME280;24370;51.986;4.666;2023-04-20T05:51:28;102119.22;;;13.76;44.71
38616;BME280;24370;51.986;4.666;2023-04-20T05:53:57;102125.75;;;14.79;41.59
38616;BME280;24370;51.986;4.666;2023-04-20T05:56:22;102122.16;;;14.92;40.88
38616;BME280;24370;51.986;4.666;2023-04-20T05:58:48;102124.69;;;15.04;39.86
38616;BME280;24370;51.986;4.666;2023-04-20T06:01:14;102121.19;;;15.01;40.09
38616;BME280;24370;51.986;4.666;2023-04-20T06:03:39;102118.47;;;15.12;39.41
38616;BME280;24370;51.986;4.666;2023-04-20T06:06:05;102122.66;;;13.93;39.88
38616;BME280;24370;51.986;4.666;2023-04-20T06:08:31;102119.41;;;15.06;38.17
38616;BME280;24370;51.986;4.666;2023-04-20T06:10:56;102124.41;;;15.35;37.82
38616;BME280;24370;51.986;4.666;2023-04-20T06:13:22;102126.75;;;15.63;36.88
38616;BME280;24370;51.986;4.666;2023-04-20T06:15:48;102133.91;;;15.52;36.42
38616;BME280;24370;51.986;4.666;2023-04-20T06:18:13;102120.31;;;15.03;37.05
38616;BME280;24370;51.986;4.666;2023-04-20T06:20:39;102127.66;;;15.64;35.76
38616;BME280;24370;51.986;4.666;2023-04-20T06:23:04;102126.38;;;15.10;36.72
38616;BME280;24370;51.986;4.666;2023-04-20T06:25:30;102118.28;;;15.33;36.51
38616;BME280;24370;51.986;4.666;2023-04-20T06:27:55;102113.66;;;14.40;37.74
38616;BME280;24370;51.986;4.666;2023-04-20T06:30:21;102113.47;;;14.78;37.09
38616;BME280;24370;51.986;4.666;2023-04-20T06:32:46;102118.84;;;14.59;37.44
38616;BME280;24370;51.986;4.666;2023-04-20T06:35:12;102113.38;;;14.90;37.06
38616;BME280;24370;51.986;4.666;2023-04-20T06:37:37;102106.03;;;15.27;36.46
38616;BME280;24370;51.986;4.666;2023-04-20T06:40:05;102105.72;;;15.60;35.74
38616;BME280;24370;51.986;4.666;2023-04-20T06:42:32;102103.16;;;15.51;36.00
38616;BME280;24370;51.986;4.666;2023-04-20T06:44:57;102099.84;;;15.30;36.78
38616;BME280;24370;51.986;4.666;2023-04-20T06:47:23;102095.53;;;15.23;36.16
38616;BME280;24370;51.986;4.666;2023-04-20T06:49:56;102097.66;;;14.84;37.82
38616;BME280;24370;51.986;4.666;2023-04-20T06:52:21;102083.38;;;15.09;37.11
38616;BME280;24370;51.986;4.666;2023-04-20T06:54:46;102096.94;;;14.49;38.52
38616;BME280;24370;51.986;4.666;2023-04-20T06:57:12;102086.91;;;15.05;38.21
38616;BME280;24370;51.986;4.666;2023-04-20T06:59:37;102089.69;;;15.82;36.93
38616;BME280;24370;51.986;4.666;2023-04-20T07:02:02;102083.81;;;14.48;38.62
38616;BME280;24370;51.986;4.666;2023-04-20T07:04:28;102084.03;;;14.07;39.81
38616;BME280;24370;51.986;4.666;2023-04-20T07:06:53;102083.00;;;14.42;39.29
38616;BME280;24370;51.986;4.666;2023-04-20T07:09:18;102073.28;;;14.51;39.85
38616;BME280;24370;51.986;4.666;2023-04-20T07:11:44;102073.56;;;13.98;40.21
38616;BME280;24370;51.986;4.666;2023-04-20T07:14:10;102081.38;;;14.12;41.08
38616;BME280;24370;51.986;4.666;2023-04-20T07:16:35;102087.03;;;14.93;39.95
38616;BME280;24370;51.986;4.666;2023-04-20T07:19:01;102092.50;;;14.65;40.26
38616;BME280;24370;51.986;4.666;2023-04-20T07:21:26;102103.34;;;14.00;41.25
38616;BME280;24370;51.986;4.666;2023-04-20T07:23:51;102095.41;;;14.13;40.91
38616;BME280;24370;51.986;4.666;2023-04-20T07:26:17;102100.41;;;14.61;40.53
38616;BME280;24370;51.986;4.666;2023-04-20T07:28:42;102105.03;;;14.17;42.18
38616;BME280;24370;51.986;4.666;2023-04-20T07:31:07;102101.47;;;14.30;41.94
38616;BME280;24370;51.986;4.666;2023-04-20T07:33:33;102107.31;;;14.79;40.79
38616;BME280;24370;51.986;4.666;2023-04-20T07:36:00;102097.94;;;14.34;42.51
38616;BME280;24370;51.986;4.666;2023-04-20T07:38:26;102094.47;;;14.26;43.44
38616;BME280;24370;51.986;4.666;2023-04-20T07:40:51;102097.75;;;14.71;44.39
38616;BME280;24370;51.986;4.666;2023-04-20T07:43:16;102105.19;;;13.70;46.14
38616;BME280;24370;51.986;4.666;2023-04-20T07:45:41;102090.19;;;14.02;45.86
38616;BME280;24370;51.986;4.666;2023-04-20T07:48:07;102096.53;;;13.44;48.08
38616;BME280;24370;51.986;4.666;2023-04-20T07:50:34;102096.50;;;12.91;48.79
38616;BME280;24370;51.986;4.666;2023-04-20T07:53:00;102093.88;;;12.60;50.42
38616;BME280;24370;51.986;4.666;2023-04-20T07:55:25;102093.78;;;13.82;49.31
38616;BME280;24370;51.986;4.666;2023-04-20T07:57:51;102092.91;;;13.79;49.44
38616;BME280;24370;51.986;4.666;2023-04-20T08:00:17;102104.25;;;12.28;53.09
38616;BME280;24370;51.986;4.666;2023-04-20T08:02:42;102100.03;;;13.05;51.53
38616;BME280;24370;51.986;4.666;2023-04-20T08:05:08;102110.47;;;12.75;51.86
38616;BME280;24370;51.986;4.666;2023-04-20T08:07:37;102107.00;;;12.91;52.14
38616;BME280;24370;51.986;4.666;2023-04-20T08:10:03;102117.44;;;12.48;53.05
38616;BME280;24370;51.986;4.666;2023-04-20T08:12:29;102107.88;;;12.81;52.44
38616;BME280;24370;51.986;4.666;2023-04-20T08:14:54;102099.84;;;13.95;50.82
38616;BME280;24370;51.986;4.666;2023-04-20T08:17:25;102104.38;;;13.31;52.82
38616;BME280;24370;51.986;4.666;2023-04-20T08:19:50;102109.56;;;12.52;54.21
38616;BME280;24370;51.986;4.666;2023-04-20T08:22:15;102103.50;;;13.42;52.59
38616;BME280;24370;51.986;4.666;2023-04-20T08:24:41;102108.78;;;12.98;53.62
38616;BME280;24370;51.986;4.666;2023-04-20T08:27:07;102093.00;;;13.26;52.91
38616;BME280;24370;51.986;4.666;2023-04-20T08:29:33;102096.50;;;12.57;54.78
38616;BME280;24370;51.986;4.666;2023-04-20T08:31:58;102078.13;;;13.00;54.16
38616;BME280;24370;51.986;4.666;2023-04-20T08:34:24;102070.28;;;12.97;54.07
38616;BME280;24370;51.986;4.666;2023-04-20T08:36:49;102066.75;;;12.70;54.46
38616;BME280;24370;51.986;4.666;2023-04-20T08:39:18;102084.25;;;12.84;54.30
38616;BME280;24370;51.986;4.666;2023-04-20T08:41:44;102080.78;;;13.19;54.85
38616;BME280;24370;51.986;4.666;2023-04-20T08:44:10;102068.50;;;12.58;55.93
38616;BME280;24370;51.986;4.666;2023-04-20T08:46:37;102082.44;;;12.27;56.14
38616;BME280;24370;51.986;4.666;2023-04-20T08:49:05;102065.00;;;13.31;53.64
38616;BME280;24370;51.986;4.666;2023-04-20T08:51:35;102073.56;;;11.94;55.65
38616;BME280;24370;51.986;4.666;2023-04-20T08:54:05;102065.91;;;13.15;55.63
38616;BME280;24370;51.986;4.666;2023-04-20T08:56:41;102057.06;;;13.53;53.29
38616;BME280;24370;51.986;4.666;2023-04-20T08:59:07;102051.66;;;13.99;51.71
38616;BME280;24370;51.986;4.666;2023-04-20T09:01:37;102058.69;;;13.99;52.16
38616;BME280;24370;51.986;4.666;2023-04-20T09:04:19;102061.53;;;12.61;55.21
38616;BME280;24370;51.986;4.666;2023-04-20T09:06:47;102068.47;;;13.53;53.63
38616;BME280;24370;51.986;4.666;2023-04-20T09:09:14;102065.84;;;13.56;52.99
38616;BME280;24370;51.986;4.666;2023-04-20T09:11:40;102055.34;;;13.47;53.20
38616;BME280;24370;51.986;4.666;2023-04-20T09:14:08;102061.50;;;13.48;52.55
38616;BME280;24370;51.986;4.666;2023-04-20T09:16:35;102054.53;;;12.97;54.35
38616;BME280;24370;51.986;4.666;2023-04-20T09:19:06;102049.94;;;13.92;52.98
38616;BME280;24370;51.986;4.666;2023-04-20T09:21:32;102053.66;;;13.00;53.40
38616;BME280;24370;51.986;4.666;2023-04-20T09:24:00;102044.91;;;13.05;53.67
38616;BME280;24370;51.986;4.666;2023-04-20T09:26:26;102051.88;;;13.36;52.97
38616;BME280;24370;51.986;4.666;2023-04-20T09:28:52;102061.47;;;13.29;52.80
38616;BME280;24370;51.986;4.666;2023-04-20T09:31:18;102062.03;;;14.24;50.76
38616;BME280;24370;51.986;4.666;2023-04-20T09:33:44;102052.22;;;14.49;49.46
38616;BME280;24370;51.986;4.666;2023-04-20T09:36:09;102053.41;;;13.99;49.63
38616;BME280;24370;51.986;4.666;2023-04-20T09:38:36;102050.50;;;14.50;49.90
38616;BME280;24370;51.986;4.666;2023-04-20T09:41:01;102032.72;;;14.83;49.30
38616;BME280;24370;51.986;4.666;2023-04-20T09:43:27;102024.72;;;15.76;46.98
38616;BME280;24370;51.986;4.666;2023-04-20T09:45:54;102032.09;;;14.47;49.38
38616;BME280;24370;51.986;4.666;2023-04-20T09:48:20;102035.16;;;15.03;48.55
38616;BME280;24370;51.986;4.666;2023-04-20T09:50:46;102036.69;;;14.15;49.46
38616;BME280;24370;51.986;4.666;2023-04-20T09:53:14;102030.09;;;14.78;49.12
38616;BME280;24370;51.986;4.666;2023-04-20T09:55:45;102015.66;;;14.11;48.22
38616;BME280;24370;51.986;4.666;2023-04-20T09:58:11;102018.84;;;14.56;48.53
38616;BME280;24370;51.986;4.666;2023-04-20T10:00:38;102022.25;;;15.59;46.48
38616;BME280;24370;51.986;4.666;2023-04-20T10:03:05;102027.22;;;15.07;46.84
38616;BME280;24370;51.986;4.666;2023-04-20T10:05:35;102028.50;;;15.52;46.92
38616;BME280;24370;51.986;4.666;2023-04-20T10:08:02;102024.22;;;15.40;46.79
38616;BME280;24370;51.986;4.666;2023-04-20T10:10:28;102020.56;;;14.60;48.42
38616;BME280;24370;51.986;4.666;2023-04-20T10:12:56;102013.13;;;13.94;49.08
38616;BME280;24370;51.986;4.666;2023-04-20T10:15:22;101993.72;;;15.95;45.78
38616;BME280;24370;51.986;4.666;2023-04-20T10:17:49;102000.53;;;16.11;45.88
38616;BME280;24370;51.986;4.666;2023-04-20T10:20:26;101993.88;;;17.43;43.10
38616;BME280;24370;51.986;4.666;2023-04-20T10:22:52;101990.19;;;16.54;43.57
38616;BME280;24370;51.986;4.666;2023-04-20T10:25:21;102001.38;;;16.14;44.04
38616;BME280;24370;51.986;4.666;2023-04-20T10:27:58;101995.97;;;17.26;43.51
38616;BME280;24370;51.986;4.666;2023-04-20T10:30:28;101990.28;;;16.49;44.50
38616;BME280;24370;51.986;4.666;2023-04-20T10:33:09;101989.97;;;16.66;43.61
38616;BME280;24370;51.986;4.666;2023-04-20T10:38:07;101996.28;;;16.00;44.41
38616;BME280;24370;51.986;4.666;2023-04-20T10:40:32;101991.94;;;15.97;43.23
38616;BME280;24370;51.986;4.666;2023-04-20T10:42:58;101978.50;;;16.16;44.05
38616;BME280;24370;51.986;4.666;2023-04-20T10:45:36;101995.69;;;15.77;44.29
38616;BME280;24370;51.986;4.666;2023-04-20T10:48:09;101988.97;;;15.53;45.07
38616;BME280;24370;51.986;4.666;2023-04-20T10:50:34;101973.53;;;16.52;43.34
38616;BME280;24370;51.986;4.666;2023-04-20T10:53:01;101974.25;;;16.60;43.13
38616;BME280;24370;51.986;4.666;2023-04-20T10:55:26;101978.75;;;17.06;42.96
38616;BME280;24370;51.986;4.666;2023-04-20T10:57:52;101980.00;;;16.84;42.69
38616;BME280;24370;51.986;4.666;2023-04-20T11:00:20;101985.22;;;16.35;44.00
38616;BME280;24370;51.986;4.666;2023-04-20T11:02:50;101978.69;;;16.03;42.90
38616;BME280;24370;51.986;4.666;2023-04-20T11:05:20;101981.47;;;15.16;45.09
38616;BME280;24370;51.986;4.666;2023-04-20T11:07:50;101981.66;;;15.74;44.03
38616;BME280;24370;51.986;4.666;2023-04-20T11:10:16;101978.59;;;16.08;44.07
38616;BME280;24370;51.986;4.666;2023-04-20T11:12:41;101979.03;;;15.01;45.86
38616;BME280;24370;51.986;4.666;2023-04-20T11:15:07;101993.59;;;15.31;45.15
38616;BME280;24370;51.986;4.666;2023-04-20T11:17:37;101972.00;;;15.76;44.66
38616;BME280;24370;51.986;4.666;2023-04-20T11:20:10;101976.31;;;15.05;45.49
38616;BME280;24370;51.986;4.666;2023-04-20T11:22:37;101961.84;;;16.12;43.22
38616;BME280;24370;51.986;4.666;2023-04-20T11:25:05;101952.91;;;17.21;42.43
38616;BME280;24370;51.986;4.666;2023-04-20T11:27:31;101947.88;;;17.94;40.77
38616;BME280;24370;51.986;4.666;2023-04-20T11:29:57;101953.91;;;16.67;42.16
38616;BME280;24370;51.986;4.666;2023-04-20T11:32:24;101935.25;;;17.65;40.07
38616;BME280;24370;51.986;4.666;2023-04-20T11:35:01;101920.66;;;17.05;41.15
38616;BME280;24370;51.986;4.666;2023-04-20T11:37:27;101929.28;;;17.15;41.56
38616;BME280;24370;51.986;4.666;2023-04-20T11:40:06;101924.31;;;18.89;38.38
38616;BME280;24370;51.986;4.666;2023-04-20T11:42:36;101928.03;;;19.14;37.67
38616;BME280;24370;51.986;4.666;2023-04-20T11:45:02;101930.53;;;17.79;38.50
38616;BME280;24370;51.986;4.666;2023-04-20T11:47:28;101924.38;;;18.53;38.52
38616;BME280;24370;51.986;4.666;2023-04-20T11:49:53;101926.22;;;18.51;37.86
38616;BME280;24370;51.986;4.666;2023-04-20T11:52:19;101919.97;;;18.88;37.58
38616;BME280;24370;51.986;4.666;2023-04-20T11:54:44;101910.22;;;19.49;36.45
38616;BME280;24370;51.986;4.666;2023-04-20T11:57:10;101907.94;;;19.37;35.43
38616;BME280;24370;51.986;4.666;2023-04-20T11:59:36;101906.34;;;19.90;35.46
38616;BME280;24370;51.986;4.666;2023-04-20T12:02:01;101905.66;;;18.60;35.99
38616;BME280;24370;51.986;4.666;2023-04-20T12:04:28;101912.63;;;17.92;38.03
38616;BME280;24370;51.986;4.666;2023-04-20T12:06:54;101909.38;;;18.52;37.89
38616;BME280;24370;51.986;4.666;2023-04-20T12:09:20;101909.88;;;18.68;37.66
38616;BME280;24370;51.986;4.666;2023-04-20T12:11:45;101906.56;;;17.86;37.31
38616;BME280;24370;51.986;4.666;2023-04-20T12:14:11;101906.91;;;18.45;36.16
38616;BME280;24370;51.986;4.666;2023-04-20T12:16:36;101905.75;;;17.84;36.46
38616;BME280;24370;51.986;4.666;2023-04-20T12:19:02;101902.19;;;18.57;35.95
38616;BME280;24370;51.986;4.666;2023-04-20T12:21:27;101899.72;;;19.17;34.71
38616;BME280;24370;51.986;4.666;2023-04-20T12:23:52;101888.13;;;20.58;32.99
38616;BME280;24370;51.986;4.666;2023-04-20T12:26:18;101890.72;;;17.86;35.09
38616;BME280;24370;51.986;4.666;2023-04-20T12:28:43;101882.50;;;19.30;33.17
38616;BME280;24370;51.986;4.666;2023-04-20T12:31:09;101881.97;;;17.84;35.58
38616;BME280;24370;51.986;4.666;2023-04-20T12:33:34;101892.47;;;18.23;35.18
38616;BME280;24370;51.986;4.666;2023-04-20T12:36:00;101881.56;;;20.17;33.51
38616;BME280;24370;51.986;4.666;2023-04-20T12:38:26;101877.16;;;19.90;33.82
38616;BME280;24370;51.986;4.666;2023-04-20T12:40:51;101890.63;;;18.61;33.71
38616;BME280;24370;51.986;4.666;2023-04-20T12:43:16;101882.81;;;18.89;33.82
38616;BME280;24370;51.986;4.666;2023-04-20T12:45:42;101881.53;;;18.02;35.01
38616;BME280;24370;51.986;4.666;2023-04-20T12:48:07;101869.19;;;19.33;33.79